Time;durP1;ratioP1;P1;durP2;ratioP2;P2;SDS_P1;SDS_P2;PMS_P1;PMS_P2;Temp;Humidity;BMP_temperature;BMP_pressure;BME280_temperature;BME280_humidity;BME280_pressure;Samples;Min_cycle;Max_cycle;Signal;HPM_P1;HPM_P2
2021/12/28 00:01:04;;;;;;;1.85;1.23;;;18.30;59.10;;;;;;10388631;28;20349;-60
2021/12/28 00:06:05;;;;;;;2.10;1.35;;;18.30;59.20;;;;;;10376690;28;20494;-62
2021/12/28 00:11:07;;;;;;;1.80;0.90;;;18.20;59.10;;;;;;10377006;28;20185;-61
2021/12/28 00:21:08;;;;;;;2.08;1.20;;;18.20;59.10;;;;;;10376634;28;20042;-62
2021/12/28 00:26:13;;;;;;;2.25;1.17;;;18.20;59.20;;;;;;10375787;28;20495;-61
2021/12/28 00:31:15;;;;;;;2.03;1.38;;;18.30;59.10;;;;;;10374972;28;20041;-62
2021/12/28 00:36:16;;;;;;;1.80;1.20;;;18.30;59.10;;;;;;10375736;28;20053;-62
2021/12/28 00:41:17;;;;;;;2.10;1.30;;;18.30;59.00;;;;;;10375395;28;20125;-61
2021/12/28 00:46:18;;;;;;;1.50;0.98;;;18.30;59.00;;;;;;10374361;28;20050;-61
2021/12/28 00:51:19;;;;;;;1.55;1.20;;;18.30;58.90;;;;;;10375373;28;20033;-62
2021/12/28 00:56:20;;;;;;;1.15;0.82;;;18.30;58.80;;;;;;10373621;28;20034;-63
2021/12/28 01:01:21;;;;;;;2.22;0.93;;;18.30;58.70;;;;;;10385201;28;20052;-61
2021/12/28 01:06:22;;;;;;;1.67;1.02;;;18.40;58.60;;;;;;10374409;28;20034;-62
2021/12/28 01:11:24;;;;;;;2.10;0.82;;;18.40;58.60;;;;;;10374544;28;20459;-62
2021/12/28 01:16:24;;;;;;;2.67;0.90;;;18.30;58.60;;;;;;10374145;28;20128;-61
2021/12/28 01:21:25;;;;;;;1.95;0.98;;;18.30;58.60;;;;;;10374143;28;20120;-61
2021/12/28 01:26:26;;;;;;;2.17;1.17;;;18.30;58.70;;;;;;10373859;28;20117;-61
2021/12/28 01:31:26;;;;;;;1.52;1.00;;;18.30;58.80;;;;;;10372709;28;20025;-61
2021/12/28 01:36:28;;;;;;;1.35;0.98;;;18.30;58.60;;;;;;10373191;28;20091;-61
2021/12/28 01:41:29;;;;;;;1.80;1.00;;;18.40;58.40;;;;;;10373041;28;20034;-61
2021/12/28 01:46:30;;;;;;;2.38;0.70;;;18.40;58.30;;;;;;10372983;28;20038;-61
2021/12/28 01:51:32;;;;;;;1.52;1.13;;;18.40;58.40;;;;;;10373294;28;20041;-61
2021/12/28 01:56:40;;;;;;;1.88;1.00;;;18.40;58.40;;;;;;10370476;28;20030;-62
2021/12/28 02:01:42;;;;;;;1.73;0.95;;;18.30;58.50;;;;;;10383895;28;20037;-62
2021/12/28 02:06:43;;;;;;;1.38;0.98;;;18.30;58.60;;;;;;10371103;28;20037;-62
2021/12/28 02:11:45;;;;;;;1.65;0.80;;;18.30;58.50;;;;;;10372323;28;20038;-61
2021/12/28 02:16:45;;;;;;;1.80;0.77;;;18.30;58.50;;;;;;10372024;28;20052;-62
2021/12/28 02:21:46;;;;;;;1.67;0.90;;;18.30;58.40;;;;;;10370646;28;20196;-62
2021/12/28 02:26:47;;;;;;;2.42;0.82;;;18.30;58.50;;;;;;10371354;28;20081;-62
2021/12/28 02:31:50;;;;;;;1.88;0.93;;;18.30;58.50;;;;;;10371921;28;20172;-62
2021/12/28 02:36:51;;;;;;;1.55;1.00;;;18.30;58.50;;;;;;10371131;28;20538;-62
2021/12/28 02:41:52;;;;;;;2.03;1.10;;;18.30;58.40;;;;;;10371298;28;20091;-62
2021/12/28 02:46:53;;;;;;;1.25;0.70;;;18.30;58.50;;;;;;10371320;28;20046;-61
2021/12/28 02:51:54;;;;;;;1.50;1.00;;;18.30;58.40;;;;;;10371174;28;20163;-62
2021/12/28 02:56:55;;;;;;;1.65;1.00;;;18.30;58.50;;;;;;10371297;28;20117;-61
2021/12/28 03:01:55;;;;;;;1.65;1.02;;;18.30;58.30;;;;;;10381882;28;20030;-62
2021/12/28 03:06:56;;;;;;;1.55;0.85;;;18.30;58.40;;;;;;10374509;28;20061;-62
2021/12/28 03:11:57;;;;;;;3.47;1.10;;;18.30;58.20;;;;;;10378945;28;20109;-62
2021/12/28 03:16:57;;;;;;;1.50;0.85;;;18.40;58.10;;;;;;10377740;28;20495;-62
2021/12/28 03:21:59;;;;;;;1.92;0.85;;;18.50;58.10;;;;;;10378689;28;20566;-61
2021/12/28 03:27:00;;;;;;;2.13;0.88;;;18.40;58.10;;;;;;10378562;28;20084;-61
2021/12/28 03:32:00;;;;;;;1.50;0.88;;;18.40;58.10;;;;;;10378535;28;20044;-62
2021/12/28 03:37:01;;;;;;;2.67;1.00;;;18.40;58.20;;;;;;10377804;28;20269;-62
2021/12/28 03:42:02;;;;;;;1.30;0.80;;;18.30;58.10;;;;;;10377509;28;20038;-61
2021/12/28 03:47:04;;;;;;;1.13;0.63;;;18.30;58.20;;;;;;10376387;28;20042;-61
2021/12/28 03:52:06;;;;;;;1.05;0.70;;;18.30;58.20;;;;;;10377716;28;20044;-62
2021/12/28 03:57:08;;;;;;;2.20;0.93;;;18.30;58.20;;;;;;10377641;28;20034;-62
2021/12/28 04:02:08;;;;;;;1.33;0.80;;;18.30;58.20;;;;;;10387413;28;20072;-62
2021/12/28 04:07:13;;;;;;;2.05;0.95;;;18.30;58.20;;;;;;10376948;28;20137;-62
2021/12/28 04:12:14;;;;;;;1.52;0.90;;;18.30;58.30;;;;;;10376687;28;20065;-61
2021/12/28 04:17:15;;;;;;;1.60;0.95;;;18.30;58.10;;;;;;10375819;28;20044;-62
2021/12/28 04:22:16;;;;;;;1.73;0.90;;;18.30;58.20;;;;;;10376307;28;20126;-61
2021/12/28 04:27:16;;;;;;;2.13;0.95;;;18.30;58.10;;;;;;10375121;28;20132;-62
2021/12/28 04:32:17;;;;;;;1.05;0.80;;;18.30;58.20;;;;;;10376221;28;20467;-62
2021/12/28 04:37:18;;;;;;;2.03;0.88;;;18.30;58.10;;;;;;10375633;28;20161;-62
2021/12/28 04:42:19;;;;;;;1.55;0.85;;;18.30;58.10;;;;;;10375353;28;20061;-61
2021/12/28 04:47:20;;;;;;;1.77;1.02;;;18.40;58.10;;;;;;10375819;28;20029;-62
2021/12/28 04:52:20;;;;;;;1.40;0.90;;;18.30;58.10;;;;;;10375226;28;20116;-62
2021/12/28 04:57:21;;;;;;;1.13;0.70;;;18.30;58.10;;;;;;10375124;28;21086;-62
2021/12/28 05:02:22;;;;;;;1.23;0.82;;;18.30;58.00;;;;;;10385860;28;20134;-62
2021/12/28 05:07:22;;;;;;;2.15;0.95;;;18.30;58.10;;;;;;10375196;28;20030;-62
2021/12/28 05:12:27;;;;;;;1.67;0.88;;;18.30;58.10;;;;;;10374365;28;20491;-61
2021/12/28 05:17:28;;;;;;;1.08;0.65;;;18.30;58.00;;;;;;10374046;28;20038;-61
2021/12/28 05:22:28;;;;;;;1.17;0.70;;;18.30;58.00;;;;;;10373874;28;20038;-62
2021/12/28 05:27:29;;;;;;;1.67;0.70;;;18.30;58.10;;;;;;10372569;28;20100;-61
2021/12/28 05:32:30;;;;;;;1.48;0.65;;;18.30;58.00;;;;;;10372543;28;20041;-61
2021/12/28 05:37:31;;;;;;;1.30;0.65;;;18.30;58.00;;;;;;10372995;28;20121;-62
2021/12/28 05:42:32;;;;;;;1.27;0.75;;;18.40;58.00;;;;;;10372025;28;20046;-62
2021/12/28 05:47:33;;;;;;;1.27;0.73;;;18.40;58.00;;;;;;10372829;28;20077;-62
2021/12/28 05:52:34;;;;;;;1.40;0.70;;;18.30;57.90;;;;;;10363982;28;20057;-62
2021/12/28 05:57:34;;;;;;;1.38;0.80;;;18.30;57.90;;;;;;10372474;28;20084;-62
2021/12/28 06:02:35;;;;;;;1.15;0.75;;;18.30;57.90;;;;;;10382110;28;20049;-62
2021/12/28 06:07:36;;;;;;;2.75;0.90;;;18.30;58.00;;;;;;10372371;28;20030;-62
2021/12/28 06:12:37;;;;;;;1.27;0.63;;;18.40;57.90;;;;;;10371977;28;20546;-60
2021/12/28 06:17:38;;;;;;;1.38;0.68;;;18.30;57.90;;;;;;10372097;28;20026;-62
2021/12/28 06:22:39;;;;;;;1.10;0.52;;;18.30;57.90;;;;;;10371283;28;20077;-62
2021/12/28 06:27:40;;;;;;;1.35;0.70;;;18.30;57.80;;;;;;10371149;28;20033;-61
2021/12/28 06:32:41;;;;;;;3.75;0.88;;;18.30;57.80;;;;;;10371644;28;20395;-61
2021/12/28 06:37:43;;;;;;;8.75;1.17;;;18.30;58.50;;;;;;10371550;28;20030;-63
2021/12/28 06:42:44;;;;;;;3.53;0.80;;;18.30;59.30;;;;;;10370861;28;20042;-63
2021/12/28 06:47:45;;;;;;;6.03;0.80;;;18.50;59.90;;;;;;10371255;28;20038;-63
2021/12/28 06:52:46;;;;;;;2.03;0.90;;;18.60;60.10;;;;;;10370956;28;20100;-63
2021/12/28 06:57:46;;;;;;;3.38;1.40;;;18.50;60.60;;;;;;10369996;28;20036;-62
2021/12/28 07:02:47;;;;;;;5.05;0.90;;;18.60;60.30;;;;;;10381474;28;20100;-63
2021/12/28 07:07:48;;;;;;;7.10;1.15;;;18.50;60.30;;;;;;10369901;28;20033;-62
2021/12/28 07:12:50;;;;;;;5.65;1.02;;;18.50;60.80;;;;;;10369490;28;20040;-62
2021/12/28 07:17:51;;;;;;;4.72;1.25;;;18.40;60.90;;;;;;10368786;28;20030;-62
2021/12/28 07:22:52;;;;;;;12.52;2.08;;;18.40;61.50;;;;;;10369275;28;20361;-61
2021/12/28 07:27:52;;;;;;;7.35;1.30;;;18.50;61.50;;;;;;10369898;28;20026;-63
2021/12/28 07:32:53;;;;;;;7.93;1.75;;;18.60;61.30;;;;;;10369483;28;20038;-63
2021/12/28 07:37:54;;;;;;;5.57;1.10;;;18.50;60.90;;;;;;10369711;28;20041;-62
2021/12/28 07:42:55;;;;;;;3.63;1.25;;;18.50;60.90;;;;;;10365328;28;20032;-63
2021/12/28 07:47:55;;;;;;;6.65;2.00;;;18.40;60.80;;;;;;10366625;28;20038;-62
2021/12/28 07:52:56;;;;;;;12.13;1.52;;;18.40;61.00;;;;;;10368471;28;20041;-63
2021/12/28 07:57:57;;;;;;;5.55;1.48;;;18.30;61.10;;;;;;10372337;28;20030;-62
2021/12/28 08:03:00;;;;;;;6.25;1.40;;;18.20;61.20;;;;;;10375138;28;20042;-61
2021/12/28 08:08:02;;;;;;;10.88;2.22;;;18.10;61.40;;;;;;10372911;28;20045;-61
2021/12/28 08:13:03;;;;;;;13.18;2.05;;;18.10;61.60;;;;;;10371509;28;20032;-61
2021/12/28 08:18:07;;;;;;;15.55;2.88;;;18.10;61.80;;;;;;10375699;28;20021;-59
2021/12/28 08:23:09;;;;;;;14.60;2.72;;;18.10;62.00;;;;;;10375177;28;20038;-61
2021/12/28 08:28:10;;;;;;;14.52;2.30;;;18.10;61.70;;;;;;10375075;28;20037;-61
2021/12/28 08:33:11;;;;;;;13.63;2.60;;;18.10;61.60;;;;;;10375404;28;20034;-61
2021/12/28 08:38:13;;;;;;;18.02;2.70;;;18.10;61.50;;;;;;10374505;28;20042;-60
2021/12/28 08:43:13;;;;;;;14.57;2.25;;;18.10;61.70;;;;;;10373780;28;20030;-61
2021/12/28 08:48:14;;;;;;;20.45;2.20;;;18.10;61.50;;;;;;10371974;28;20057;-60
2021/12/28 08:53:15;;;;;;;9.98;2.75;;;18.10;61.20;;;;;;10371688;28;20202;-61
2021/12/28 08:58:16;;;;;;;10.30;2.47;;;18.20;60.90;;;;;;10374089;28;20037;-60
2021/12/28 09:03:16;;;;;;;9.13;2.70;;;18.20;60.80;;;;;;10375992;28;20487;-61
2021/12/28 09:08:18;;;;;;;8.60;2.10;;;18.20;60.70;;;;;;10373048;28;20030;-61
2021/12/28 09:13:19;;;;;;;7.70;1.92;;;18.30;60.60;;;;;;10369596;28;20124;-61
2021/12/28 09:18:20;;;;;;;12.48;1.55;;;18.20;60.50;;;;;;10369370;28;20036;-60
2021/12/28 09:23:20;;;;;;;9.25;1.48;;;18.30;60.40;;;;;;10369006;28;20042;-60
2021/12/28 09:28:22;;;;;;;5.22;1.42;;;18.30;60.20;;;;;;10372210;28;20042;-60
2021/12/28 09:33:24;;;;;;;8.73;2.47;;;18.30;60.20;;;;;;10372645;28;20096;-60
2021/12/28 09:38:25;;;;;;;5.00;1.85;;;18.30;60.00;;;;;;10372589;28;20400;-61
2021/12/28 09:43:26;;;;;;;9.98;1.55;;;18.30;59.90;;;;;;10372479;28;20137;-60
2021/12/28 09:48:27;;;;;;;6.38;1.50;;;18.30;60.00;;;;;;10371825;28;20030;-61
2021/12/28 09:53:28;;;;;;;11.18;1.88;;;18.20;60.10;;;;;;10371281;28;20038;-61
2021/12/28 09:58:29;;;;;;;5.10;1.20;;;18.20;60.30;;;;;;10367300;28;20159;-60
2021/12/28 10:03:29;;;;;;;7.72;1.80;;;18.20;60.10;;;;;;10373219;28;20042;-61
2021/12/28 10:08:30;;;;;;;7.53;1.58;;;18.20;60.00;;;;;;10371756;28;20026;-60
2021/12/28 10:13:31;;;;;;;9.35;2.00;;;18.10;60.10;;;;;;10371840;28;20586;-61
2021/12/28 10:18:32;;;;;;;9.35;1.73;;;18.20;60.40;;;;;;10363650;28;20049;-61
2021/12/28 10:23:33;;;;;;;9.68;2.42;;;18.30;60.40;;;;;;10366697;28;20044;-60
2021/12/28 10:28:38;;;;;;;7.97;1.45;;;18.30;60.30;;;;;;10370773;28;20030;-60
2021/12/28 10:33:39;;;;;;;11.40;1.20;;;18.40;60.40;;;;;;10370710;28;20045;-62
2021/12/28 10:38:50;;;;;;;8.55;1.70;;;18.30;60.60;;;;;;10371282;28;20049;-62
2021/12/28 10:43:54;;;;;;;15.20;2.30;;;18.30;61.30;;;;;;10369886;28;20054;-60
2021/12/28 10:49:00;;;;;;;10.27;1.98;;;18.40;61.90;;;;;;10369784;28;20032;-60
2021/12/28 10:59:10;;;;;;;13.15;2.15;;;18.40;61.50;;;;;;10369850;28;20124;-60
2021/12/28 11:04:13;;;;;;;10.77;1.52;;;18.30;61.60;;;;;;10372867;28;20456;-60
2021/12/28 11:09:23;;;;;;;13.43;2.22;;;18.20;61.70;;;;;;10370434;28;20115;-59
2021/12/28 11:14:29;;;;;;;14.55;2.53;;;18.20;62.00;;;;;;10370150;28;20052;-59
2021/12/28 11:19:37;;;;;;;8.88;2.08;;;18.20;62.40;;;;;;10369902;28;20105;-59
2021/12/28 11:24:44;;;;;;;9.77;1.52;;;18.40;62.80;;;;;;10370135;28;20025;-60
2021/12/28 11:29:44;;;;;;;6.28;1.58;;;18.60;62.30;;;;;;10376238;28;20025;-59
2021/12/28 11:34:46;;;;;;;5.97;1.10;;;18.60;62.60;;;;;;10378429;28;20125;-61
2021/12/28 11:39:55;;;;;;;17.17;2.92;;;18.50;63.00;;;;;;10378097;28;20045;-59
2021/12/28 11:44:56;;;;;;;11.90;1.80;;;18.40;63.70;;;;;;10375765;28;20119;-59
2021/12/28 11:49:58;;;;;;;12.75;2.00;;;18.40;64.20;;;;;;10377356;28;20034;-61
2021/12/28 11:55:00;;;;;;;10.98;1.70;;;18.30;64.50;;;;;;10376833;28;20487;-61
2021/12/28 12:00:11;;;;;;;12.23;1.75;;;18.20;65.10;;;;;;10381265;28;20022;-61
2021/12/28 12:05:25;;;;;;;11.38;1.50;;;18.20;64.00;;;;;;10377323;28;20041;-61
2021/12/28 12:10:30;;;;;;;11.93;2.13;;;18.10;64.00;;;;;;10375707;28;20042;-62
2021/12/28 12:15:46;;;;;;;10.40;2.35;;;18.00;64.70;;;;;;10375059;28;20049;-61
2021/12/28 12:20:54;;;;;;;16.38;2.90;;;18.00;64.30;;;;;;10374136;28;20030;-60
2021/12/28 12:26:06;;;;;;;16.10;1.92;;;18.00;64.50;;;;;;10376530;28;20034;-60
2021/12/28 12:31:18;;;;;;;19.30;2.58;;;18.00;64.90;;;;;;10376500;28;20357;-60
2021/12/28 12:36:41;;;;;;;17.17;2.30;;;18.00;65.40;;;;;;10375752;28;20120;-63
2021/12/28 12:41:51;;;;;;;13.63;2.30;;;17.90;65.40;;;;;;10374727;28;20073;-62
2021/12/28 12:47:04;;;;;;;16.08;2.10;;;17.90;65.10;;;;;;10374430;28;20061;-62
2021/12/28 12:52:17;;;;;;;17.58;3.35;;;17.90;65.10;;;;;;10375592;28;20081;-63
2021/12/28 12:57:30;;;;;;;19.38;2.50;;;17.90;65.60;;;;;;10354897;28;20435;-63
2021/12/28 13:02:36;;;;;;;18.13;1.80;;;17.90;65.80;;;;;;10375145;28;20033;-62
2021/12/28 13:07:38;;;;;;;17.20;3.17;;;17.90;65.70;;;;;;10372886;28;20041;-62
2021/12/28 13:12:43;;;;;;;11.70;2.30;;;18.00;66.60;;;;;;10371616;28;20480;-63
2021/12/28 13:17:47;;;;;;;23.10;2.45;;;17.90;65.50;;;;;;10373680;28;20058;-63
2021/12/28 13:22:59;;;;;;;11.50;1.88;;;17.90;65.60;;;;;;10374971;28;20111;-63
2021/12/28 13:28:05;;;;;;;8.60;2.13;;;17.80;65.40;;;;;;10373826;28;20034;-63
2021/12/28 13:33:07;;;;;;;10.55;1.80;;;17.80;65.30;;;;;;10373792;28;20104;-62
2021/12/28 13:38:12;;;;;;;6.05;1.33;;;17.80;65.30;;;;;;10371773;28;20139;-63
2021/12/28 13:43:25;;;;;;;10.18;2.00;;;17.80;65.00;;;;;;10372147;28;20045;-62
2021/12/28 13:48:28;;;;;;;8.75;1.83;;;17.90;64.90;;;;;;10371776;28;20065;-62
2021/12/28 13:53:31;;;;;;;10.57;2.40;;;18.00;64.60;;;;;;10371553;28;20089;-62
2021/12/28 13:58:46;;;;;;;16.70;1.85;;;18.00;64.50;;;;;;10372135;28;20053;-61
2021/12/28 14:04:08;;;;;;;12.65;2.33;;;18.10;64.20;;;;;;10372647;28;20034;-62
2021/12/28 14:09:13;;;;;;;9.35;2.35;;;18.20;64.60;;;;;;10371145;28;20029;-62
2021/12/28 14:14:17;;;;;;;17.25;1.95;;;18.20;64.70;;;;;;10372339;28;20132;-64
2021/12/28 14:19:18;;;;;;;21.67;2.88;;;18.20;65.00;;;;;;10372808;28;20077;-63
2021/12/28 14:24:19;;;;;;;18.25;2.33;;;18.10;65.30;;;;;;10371816;28;20379;-63
2021/12/28 14:29:24;;;;;;;13.63;2.15;;;18.10;65.50;;;;;;10371927;28;20149;-63
2021/12/28 14:34:33;;;;;;;18.38;2.88;;;18.00;65.40;;;;;;10369837;28;20512;-63
2021/12/28 14:39:43;;;;;;;18.38;3.22;;;18.00;65.60;;;;;;10369708;28;20381;-61
2021/12/28 14:44:48;;;;;;;16.02;2.90;;;18.10;66.50;;;;;;10368115;28;20044;-61
2021/12/28 14:49:53;;;;;;;19.20;2.88;;;18.10;66.40;;;;;;10371196;28;20112;-60
2021/12/28 14:55:17;;;;;;;12.90;2.92;;;18.10;66.20;;;;;;10369797;28;20125;-62
2021/12/28 15:00:33;;;;;;;23.92;2.72;;;18.10;66.40;;;;;;10377289;28;20046;-63
2021/12/28 15:05:57;;;;;;;21.02;2.83;;;18.00;66.30;;;;;;10378820;28;20076;-61
2021/12/28 15:10:58;;;;;;;14.30;2.78;;;18.00;66.40;;;;;;10367955;28;20045;-61
2021/12/28 15:16:00;;;;;;;15.40;2.22;;;18.00;65.80;;;;;;10373642;28;20057;-61
2021/12/28 15:21:02;;;;;;;13.95;2.53;;;18.00;65.60;;;;;;10372902;28;20091;-60
2021/12/28 15:26:03;;;;;;;12.30;2.10;;;18.00;65.50;;;;;;10372673;28;20038;-60
2021/12/28 15:31:04;;;;;;;9.32;1.50;;;18.00;65.40;;;;;;10377231;28;20450;-60
2021/12/28 15:36:05;;;;;;;8.35;1.63;;;18.00;65.20;;;;;;10378688;28;20040;-60
2021/12/28 15:41:09;;;;;;;12.50;1.73;;;18.00;65.00;;;;;;10378244;28;20142;-60
2021/12/28 15:46:10;;;;;;;8.85;1.58;;;18.00;64.90;;;;;;10377957;28;20475;-60
2021/12/28 15:51:11;;;;;;;9.55;1.58;;;18.10;64.60;;;;;;10379779;28;20037;-60
2021/12/28 15:56:11;;;;;;;8.85;1.70;;;18.10;64.30;;;;;;10379374;28;20088;-60
2021/12/28 16:01:16;;;;;;;11.18;1.77;;;18.10;64.70;;;;;;10377637;28;20044;-60
2021/12/28 16:06:18;;;;;;;11.20;2.15;;;18.10;64.20;;;;;;10377064;28;20046;-61
2021/12/28 16:11:20;;;;;;;9.98;2.72;;;18.10;64.30;;;;;;10375205;28;20443;-60
2021/12/28 16:16:21;;;;;;;13.82;2.72;;;18.30;64.10;;;;;;10375153;28;20026;-60
2021/12/28 16:21:23;;;;;;;8.57;2.40;;;18.30;64.20;;;;;;10365248;28;20124;-61
2021/12/28 16:26:23;;;;;;;21.63;2.63;;;18.30;64.30;;;;;;10377116;28;20046;-60
2021/12/28 16:31:27;;;;;;;14.02;2.65;;;18.30;64.60;;;;;;10361392;28;20427;-61
2021/12/28 16:36:28;;;;;;;8.63;2.00;;;18.20;64.80;;;;;;10368369;28;20053;-61
2021/12/28 16:41:29;;;;;;;9.35;2.40;;;18.20;65.10;;;;;;10352468;28;20477;-60
2021/12/28 16:46:30;;;;;;;10.30;1.98;;;18.20;65.00;;;;;;10373382;28;20399;-61
2021/12/28 16:51:31;;;;;;;11.70;2.03;;;18.20;64.50;;;;;;10366672;28;20060;-60
2021/12/28 16:56:34;;;;;;;12.77;3.10;;;18.20;64.20;;;;;;10375771;28;20117;-60
2021/12/28 17:01:34;;;;;;;13.35;2.70;;;18.40;67.10;;;;;;10379357;28;20076;-61
2021/12/28 17:06:35;;;;;;;7.45;2.80;;;18.40;66.60;;;;;;10362276;28;20092;-62
2021/12/28 17:11:37;;;;;;;11.65;3.53;;;18.50;68.90;;;;;;10364551;28;20026;-60
2021/12/28 17:16:38;;;;;;;9.68;2.85;;;18.70;68.10;;;;;;10376887;28;20111;-62
2021/12/28 17:21:38;;;;;;;9.30;3.60;;;18.70;67.70;;;;;;10362884;28;20046;-62
2021/12/28 17:26:39;;;;;;;7.20;2.17;;;18.60;67.40;;;;;;10368956;28;20030;-62
2021/12/28 17:31:40;;;;;;;11.90;3.03;;;18.60;67.80;;;;;;10367048;28;20509;-62
2021/12/28 17:36:41;;;;;;;7.97;2.70;;;18.50;67.70;;;;;;10370550;28;20045;-62
2021/12/28 17:41:43;;;;;;;8.10;2.78;;;18.50;66.90;;;;;;10366655;28;20054;-62
2021/12/28 17:46:44;;;;;;;7.68;2.20;;;18.40;67.30;;;;;;10368296;28;20051;-62
2021/12/28 17:51:45;;;;;;;7.75;2.05;;;18.40;67.40;;;;;;10362748;28;20042;-61
2021/12/28 17:56:45;;;;;;;8.68;2.53;;;18.20;67.20;;;;;;10373224;28;20034;-61
2021/12/28 18:01:46;;;;;;;6.30;2.25;;;18.20;67.20;;;;;;10371235;28;20037;-61
2021/12/28 18:06:47;;;;;;;12.20;2.95;;;18.10;67.40;;;;;;10370684;28;20117;-62
2021/12/28 18:11:47;;;;;;;10.27;2.78;;;18.10;67.60;;;;;;10371833;28;20045;-62
2021/12/28 18:16:48;;;;;;;5.70;1.63;;;18.00;67.30;;;;;;10373510;28;20535;-61
2021/12/28 18:21:53;;;;;;;4.38;1.77;;;18.00;67.30;;;;;;10371540;28;20042;-61
2021/12/28 18:26:54;;;;;;;10.40;1.70;;;18.00;67.00;;;;;;10372762;28;20026;-61
2021/12/28 18:31:57;;;;;;;7.25;1.70;;;18.00;67.00;;;;;;10372919;28;20088;-62
2021/12/28 18:36:58;;;;;;;6.88;1.88;;;18.00;67.00;;;;;;10370970;28;20109;-62
2021/12/28 18:42:01;;;;;;;3.30;1.55;;;18.00;66.80;;;;;;10370881;28;20050;-61
2021/12/28 18:47:01;;;;;;;6.05;1.95;;;18.00;66.60;;;;;;10372512;28;20030;-62
2021/12/28 18:52:03;;;;;;;4.07;1.73;;;17.90;66.50;;;;;;10372313;28;20502;-62
2021/12/28 18:57:05;;;;;;;3.63;1.58;;;18.00;66.40;;;;;;10372278;28;20057;-62
2021/12/28 19:02:06;;;;;;;4.63;1.73;;;18.00;66.10;;;;;;10372122;28;20038;-61
2021/12/28 19:07:07;;;;;;;7.03;1.60;;;18.00;65.90;;;;;;10372340;28;20411;-60
2021/12/28 19:12:08;;;;;;;4.90;1.52;;;18.00;65.60;;;;;;10372291;28;20401;-61
2021/12/28 19:17:10;;;;;;;4.85;1.50;;;18.10;65.50;;;;;;10371587;28;20148;-60
2021/12/28 19:22:10;;;;;;;2.95;1.08;;;18.10;65.20;;;;;;10364516;28;20038;-61
2021/12/28 19:27:11;;;;;;;3.55;1.05;;;18.10;65.50;;;;;;10372027;28;20496;-61
2021/12/28 19:32:12;;;;;;;4.40;1.27;;;18.10;65.50;;;;;;10358468;28;20026;-61
2021/12/28 19:37:13;;;;;;;5.05;1.45;;;18.20;66.00;;;;;;10370195;28;20089;-62
2021/12/28 19:42:13;;;;;;;4.60;1.10;;;18.30;66.70;;;;;;10369178;28;20514;-60
2021/12/28 19:47:15;;;;;;;5.20;0.95;;;18.30;66.30;;;;;;10371800;28;20029;-61
2021/12/28 19:52:16;;;;;;;3.85;1.20;;;18.30;66.70;;;;;;10374800;28;20376;-61
2021/12/28 19:57:17;;;;;;;3.58;1.05;;;18.30;66.70;;;;;;10378993;28;20034;-61
2021/12/28 20:02:18;;;;;;;5.88;1.15;;;18.30;66.50;;;;;;10380391;28;20080;-62
2021/12/28 20:07:19;;;;;;;4.45;1.30;;;18.20;66.70;;;;;;10377606;28;20042;-63
2021/12/28 20:12:19;;;;;;;4.43;1.17;;;18.20;66.70;;;;;;10376505;28;20040;-62
2021/12/28 20:17:20;;;;;;;2.75;0.90;;;18.10;66.60;;;;;;10374999;28;20038;-63
2021/12/28 20:22:21;;;;;;;5.03;1.13;;;18.10;66.80;;;;;;10376160;28;20037;-63
2021/12/28 20:27:22;;;;;;;6.72;1.20;;;18.00;66.80;;;;;;10377109;28;20048;-62
2021/12/28 20:32:22;;;;;;;5.22;1.45;;;18.00;66.90;;;;;;10376137;28;20052;-61
2021/12/28 20:37:23;;;;;;;1.98;0.68;;;17.90;66.50;;;;;;10373357;28;20117;-61
2021/12/28 20:42:25;;;;;;;3.17;0.88;;;18.00;66.20;;;;;;10371661;28;20038;-61
2021/12/28 20:47:27;;;;;;;4.32;1.00;;;18.10;65.80;;;;;;10372237;28;20561;-61
2021/12/28 20:52:28;;;;;;;2.10;1.00;;;18.10;65.50;;;;;;10370650;28;20029;-62
2021/12/28 20:57:29;;;;;;;2.47;1.05;;;18.20;65.20;;;;;;10373990;28;20034;-61
2021/12/28 21:02:29;;;;;;;1.95;0.88;;;18.30;64.90;;;;;;10374351;28;20049;-61
2021/12/28 21:07:30;;;;;;;2.65;0.80;;;18.30;64.70;;;;;;10374014;28;20080;-62
2021/12/28 21:12:31;;;;;;;3.17;1.35;;;18.30;64.60;;;;;;10374114;28;20026;-62
2021/12/28 21:17:31;;;;;;;1.38;0.73;;;18.30;64.50;;;;;;10373990;28;20076;-62
2021/12/28 21:22:32;;;;;;;3.47;0.82;;;18.40;64.30;;;;;;10372609;28;20247;-62
2021/12/28 21:27:33;;;;;;;2.35;0.85;;;18.40;64.20;;;;;;10374773;28;20034;-62
2021/12/28 21:32:34;;;;;;;2.80;0.90;;;18.40;64.10;;;;;;10372971;28;20116;-62
2021/12/28 21:37:37;;;;;;;3.17;1.02;;;18.40;64.10;;;;;;10373596;28;20049;-61
2021/12/28 21:42:38;;;;;;;1.60;0.70;;;18.40;64.10;;;;;;10373625;28;20037;-61
2021/12/28 21:47:39;;;;;;;1.73;0.75;;;18.40;64.00;;;;;;10373651;28;20038;-61
2021/12/28 21:52:42;;;;;;;2.22;0.70;;;18.40;63.90;;;;;;10373354;28;20229;-61
2021/12/28 21:57:43;;;;;;;2.20;0.60;;;18.40;63.80;;;;;;10373075;28;20076;-62
2021/12/28 22:02:46;;;;;;;2.00;0.80;;;18.40;63.70;;;;;;10374850;28;20550;-62
2021/12/28 22:07:47;;;;;;;1.38;0.60;;;18.40;63.70;;;;;;10371651;28;20038;-62
2021/12/28 22:12:48;;;;;;;2.92;0.63;;;18.40;63.60;;;;;;10371827;28;20113;-63
2021/12/28 22:17:49;;;;;;;1.98;0.60;;;18.40;63.70;;;;;;10372662;28;20117;-62
2021/12/28 22:22:50;;;;;;;2.45;0.57;;;18.40;63.60;;;;;;10372407;28;20117;-62
2021/12/28 22:27:50;;;;;;;1.48;0.52;;;18.40;63.70;;;;;;10372312;28;20029;-61
2021/12/28 22:32:51;;;;;;;1.88;0.73;;;18.40;63.80;;;;;;10372173;28;20438;-61
2021/12/28 22:37:56;;;;;;;0.98;0.40;;;18.40;63.50;;;;;;10372058;28;20499;-62
2021/12/28 22:42:56;;;;;;;1.10;0.60;;;18.40;63.50;;;;;;10371855;28;20404;-61
2021/12/28 22:47:58;;;;;;;1.33;0.60;;;18.40;63.40;;;;;;10371524;28;20120;-62
2021/12/28 22:52:59;;;;;;;1.15;0.52;;;18.40;63.30;;;;;;10371680;28;20045;-62
2021/12/28 22:57:59;;;;;;;1.10;0.50;;;18.40;63.50;;;;;;10371387;28;20041;-62
2021/12/28 23:03:03;;;;;;;2.38;0.80;;;18.40;63.60;;;;;;10376109;28;20041;-62
2021/12/28 23:08:06;;;;;;;1.38;0.40;;;18.40;63.30;;;;;;10353734;28;20037;-61
2021/12/28 23:13:08;;;;;;;1.75;0.60;;;18.40;63.30;;;;;;10370968;28;20026;-62
2021/12/28 23:18:11;;;;;;;1.13;0.40;;;18.40;63.30;;;;;;10370950;28;20041;-62
2021/12/28 23:23:12;;;;;;;0.82;0.50;;;18.40;63.30;;;;;;10372501;28;20368;-62
2021/12/28 23:28:15;;;;;;;2.28;0.47;;;18.40;63.30;;;;;;10382430;28;20049;-61
2021/12/28 23:33:16;;;;;;;1.35;0.50;;;18.40;63.30;;;;;;10378993;28;20066;-62
2021/12/28 23:38:16;;;;;;;1.88;0.50;;;18.40;63.30;;;;;;10378252;28;20511;-61
2021/12/28 23:43:17;;;;;;;1.38;0.68;;;18.50;63.10;;;;;;10378690;28;20030;-62
2021/12/28 23:48:18;;;;;;;1.95;0.60;;;18.40;63.00;;;;;;10378180;28;20045;-61
2021/12/28 23:53:19;;;;;;;2.08;0.60;;;18.40;63.30;;;;;;10377772;28;20030;-62
2021/12/28 23:58:19;;;;;;;1.60;0.43;;;18.30;63.30;;;;;;10378241;28;20112;-62
